Time;durP1;ratioP1;P1;durP2;ratioP2;P2;SDS_P1;SDS_P2;PMS_P1;PMS_P2;Temp;Humidity;BMP_temperature;BMP_pressure;BME280_temperature;BME280_humidity;BME280_pressure;Samples;Min_cycle;Max_cycle;Signal;HPM_P1;HPM_P2
2021/03/14 00:00:28;;;;;;;38.08;26.55;;;231.00;1920.00;;;;;;4884893;29;20101;-69
2021/03/14 00:02:53;;;;;;;40.53;26.17;;;230.90;1920.00;;;;;;4884712;29;20013;-69
2021/03/14 00:05:20;;;;;;;42.85;28.27;;;230.90;1920.00;;;;;;4884453;29;20045;-68
2021/03/14 00:07:46;;;;;;;37.58;27.05;;;230.90;1920.00;;;;;;4884845;29;20038;-69
2021/03/14 00:10:12;;;;;;;38.47;26.55;;;230.90;1920.00;;;;;;4884843;29;20022;-69
2021/03/14 00:12:39;;;;;;;40.33;26.05;;;230.90;1920.00;;;;;;4884708;29;20024;-68
2021/03/14 00:15:06;;;;;;;36.17;24.83;;;230.80;1920.00;;;;;;4884859;29;20099;-69
2021/03/14 00:17:32;;;;;;;35.28;24.92;;;230.80;1920.00;;;;;;4884763;29;20034;-69
2021/03/14 00:19:58;;;;;;;42.78;27.13;;;230.80;1920.00;;;;;;4884543;29;20050;-68
2021/03/14 00:22:23;;;;;;;39.22;26.25;;;230.80;1920.00;;;;;;4884770;29;20017;-68
2021/03/14 00:24:49;;;;;;;41.30;27.33;;;230.80;1894.40;;;;;;4884608;29;20014;-68
2021/03/14 00:27:15;;;;;;;36.63;24.80;;;230.70;1920.00;;;;;;4884719;29;20013;-68
2021/03/14 00:29:40;;;;;;;37.10;25.42;;;230.70;1920.00;;;;;;4884693;29;20095;-68
2021/03/14 00:32:06;;;;;;;35.22;23.98;;;230.70;1920.00;;;;;;4884677;29;20028;-68
2021/03/14 00:34:32;;;;;;;33.95;23.15;;;230.70;1920.00;;;;;;4884458;29;20028;-67
2021/03/14 00:36:58;;;;;;;32.72;23.35;;;230.70;1920.00;;;;;;4884586;29;20029;-68
2021/03/14 00:39:24;;;;;;;38.00;23.88;;;230.70;1894.40;;;;;;4884507;29;20093;-69
2021/03/14 00:41:50;;;;;;;39.10;25.08;;;230.60;1920.00;;;;;;4884436;29;20016;-69
2021/03/14 00:44:15;;;;;;;33.13;22.58;;;230.60;1920.00;;;;;;4884598;29;20025;-69
2021/03/14 00:46:41;;;;;;;35.40;23.10;;;230.50;1920.00;;;;;;4884513;29;20021;-69
2021/03/14 00:49:07;;;;;;;33.30;22.35;;;230.50;1920.00;;;;;;4884489;29;20029;-68
2021/03/14 00:51:33;;;;;;;39.47;24.08;;;230.50;1920.00;;;;;;4884473;29;20014;-68
2021/03/14 00:53:58;;;;;;;40.30;21.42;;;230.50;1920.00;;;;;;4884441;29;20065;-68
2021/03/14 00:56:24;;;;;;;36.30;23.50;;;230.50;1920.00;;;;;;4884245;29;20042;-68
2021/03/14 00:58:50;;;;;;;34.20;21.90;;;230.40;1920.00;;;;;;4884175;29;20029;-68
2021/03/14 01:01:16;;;;;;;36.08;23.13;;;230.50;1920.00;;;;;;4887359;29;20022;-67
2021/03/14 01:03:42;;;;;;;33.78;21.85;;;230.40;1920.00;;;;;;4871703;29;20036;-68
2021/03/14 01:06:08;;;;;;;29.98;21.67;;;230.40;1920.00;;;;;;4887618;29;20045;-67
2021/03/14 01:08:34;;;;;;;29.65;21.27;;;230.40;1920.00;;;;;;4887589;29;20060;-68
2021/03/14 01:10:59;;;;;;;28.92;21.17;;;230.40;1920.00;;;;;;4887555;29;20014;-68
2021/03/14 01:13:25;;;;;;;31.33;20.58;;;230.40;1920.00;;;;;;4887561;29;20009;-68
2021/03/14 01:15:51;;;;;;;30.70;20.98;;;230.40;1920.00;;;;;;4887467;29;20014;-68
2021/03/14 01:18:17;;;;;;;31.90;20.67;;;230.40;1920.00;;;;;;4887357;29;20037;-67
2021/03/14 01:20:43;;;;;;;31.40;20.67;;;230.40;1920.00;;;;;;4887470;29;20045;-67
2021/03/14 01:23:08;;;;;;;29.63;19.38;;;230.40;1920.00;;;;;;4887397;29;20047;-68
2021/03/14 01:25:34;;;;;;;27.80;19.42;;;230.40;1920.00;;;;;;4887332;29;20045;-69
2021/03/14 01:28:00;;;;;;;33.33;19.40;;;205.70;1920.00;;;;;;4887374;29;20029;-69
2021/03/14 01:30:26;;;;;;;26.70;18.52;;;205.70;1920.00;;;;;;4887193;29;20090;-69
2021/03/14 01:32:51;;;;;;;25.42;17.98;;;205.70;1920.00;;;;;;4887182;29;20030;-69
2021/03/14 01:35:18;;;;;;;24.48;17.00;;;205.70;1920.00;;;;;;4886964;29;20127;-69
2021/03/14 01:37:44;;;;;;;30.23;18.63;;;205.70;1920.00;;;;;;4886973;29;20009;-67
2021/03/14 01:40:13;;;;;;;34.22;18.50;;;205.70;1894.40;;;;;;4887066;29;20077;-69
2021/03/14 01:42:38;;;;;;;27.42;16.77;;;205.70;1894.40;;;;;;4886999;29;20018;-69
2021/03/14 01:45:06;;;;;;;27.50;18.05;;;205.70;1894.40;;;;;;4886931;29;20077;-70
2021/03/14 01:47:40;;;;;;;23.58;16.33;;;205.70;1894.40;;;;;;4886944;29;20022;-70
2021/03/14 01:50:11;;;;;;;31.08;16.08;;;205.70;1894.40;;;;;;4886825;29;20033;-70
2021/03/14 01:52:38;;;;;;;23.83;16.95;;;230.40;1894.40;;;;;;4886822;29;20022;-68
2021/03/14 01:55:06;;;;;;;23.88;16.75;;;205.70;1894.40;;;;;;4886798;29;20025;-68
2021/03/14 01:57:32;;;;;;;31.15;16.60;;;205.70;1894.40;;;;;;4886751;29;20044;-68
2021/03/14 01:59:59;;;;;;;28.38;17.10;;;230.40;1894.40;;;;;;4886715;29;20037;-68
2021/03/14 02:02:24;;;;;;;24.38;16.73;;;230.40;1894.40;;;;;;4886735;29;20036;-69
2021/03/14 02:04:51;;;;;;;25.13;16.13;;;230.40;1894.40;;;;;;4886578;29;20022;-67
2021/03/14 02:07:17;;;;;;;23.23;16.13;;;230.40;1894.40;;;;;;4886559;29;20013;-68
2021/03/14 02:09:42;;;;;;;25.67;14.88;;;230.40;1894.40;;;;;;4886532;29;20077;-69
2021/03/14 02:12:13;;;;;;;23.83;15.60;;;230.40;1894.40;;;;;;4885577;29;20028;-69
2021/03/14 02:14:39;;;;;;;22.95;15.80;;;230.40;1894.40;;;;;;4886391;29;20021;-68
2021/03/14 02:17:09;;;;;;;24.38;15.75;;;230.40;1894.40;;;;;;4886474;29;20022;-68
2021/03/14 02:19:38;;;;;;;20.50;14.57;;;230.40;1894.40;;;;;;4886269;29;20111;-69
2021/03/14 02:22:05;;;;;;;22.65;15.55;;;230.40;1894.40;;;;;;4886228;29;20043;-69
2021/03/14 02:24:51;;;;;;;27.27;16.17;;;230.40;1894.40;;;;;;4885972;29;20175;-70
2021/03/14 02:27:18;;;;;;;21.92;14.35;;;230.50;1894.40;;;;;;4886095;29;20038;-68
2021/03/14 02:29:44;;;;;;;21.27;13.68;;;230.50;1894.40;;;;;;4886092;29;20040;-68
2021/03/14 02:32:11;;;;;;;20.90;15.50;;;230.50;1894.40;;;;;;4886113;29;20089;-68
2021/03/14 02:34:42;;;;;;;23.20;15.25;;;230.50;1894.40;;;;;;4886019;29;20029;-69
2021/03/14 02:37:10;;;;;;;25.08;14.90;;;230.50;1894.40;;;;;;4886014;29;20017;-68
2021/03/14 02:39:37;;;;;;;23.30;15.30;;;230.50;1894.40;;;;;;4886050;29;20041;-69
2021/03/14 02:42:07;;;;;;;20.83;13.80;;;230.50;1894.40;;;;;;4885971;29;20009;-68
2021/03/14 02:44:37;;;;;;;21.55;14.25;;;230.60;1894.40;;;;;;4885912;29;20047;-67
2021/03/14 02:47:05;;;;;;;19.80;13.75;;;230.60;1894.40;;;;;;4885873;29;20077;-68
2021/03/14 02:49:32;;;;;;;22.77;14.38;;;230.60;1894.40;;;;;;4885848;29;20109;-68
2021/03/14 02:51:58;;;;;;;25.33;14.65;;;230.60;1894.40;;;;;;4885818;29;20034;-69
2021/03/14 02:54:25;;;;;;;24.25;14.60;;;230.70;1894.40;;;;;;4885845;29;20010;-68
2021/03/14 02:56:52;;;;;;;26.42;13.77;;;230.70;1894.40;;;;;;4885079;29;20018;-69
2021/03/14 02:59:20;;;;;;;20.58;13.48;;;230.70;1894.40;;;;;;4885605;29;20079;-68
2021/03/14 03:01:49;;;;;;;19.23;12.98;;;230.70;1894.40;;;;;;4885579;29;20054;-68
2021/03/14 03:04:21;;;;;;;22.10;13.50;;;230.70;1894.40;;;;;;4885658;29;20049;-68
2021/03/14 03:06:47;;;;;;;18.25;13.10;;;230.70;1894.40;;;;;;4885425;29;20014;-68
2021/03/14 03:09:14;;;;;;;18.77;12.88;;;230.70;1894.40;;;;;;4885228;29;20046;-68
2021/03/14 03:11:42;;;;;;;22.70;13.25;;;230.70;1894.40;;;;;;4885473;29;20025;-69
2021/03/14 03:14:13;;;;;;;21.70;13.68;;;230.70;1894.40;;;;;;4885345;29;20033;-68
2021/03/14 03:16:43;;;;;;;19.30;13.32;;;230.70;1894.40;;;;;;4885439;29;20029;-69
2021/03/14 03:19:14;;;;;;;17.63;12.48;;;230.70;1894.40;;;;;;4885169;29;20032;-70
2021/03/14 03:21:40;;;;;;;20.05;12.30;;;230.70;1894.40;;;;;;4885380;29;20042;-68
2021/03/14 03:24:07;;;;;;;20.75;13.02;;;230.70;1894.40;;;;;;4885057;29;20029;-68
2021/03/14 03:26:33;;;;;;;19.30;12.60;;;230.70;1894.40;;;;;;4885247;29;20037;-70
2021/03/14 03:28:59;;;;;;;18.15;13.13;;;230.70;1894.40;;;;;;4885217;29;20014;-69
2021/03/14 03:31:24;;;;;;;19.40;12.77;;;230.70;1894.40;;;;;;4885283;29;20046;-69
2021/03/14 03:33:50;;;;;;;18.13;12.40;;;230.70;1894.40;;;;;;4885220;29;20014;-69
2021/03/14 03:36:16;;;;;;;22.02;13.02;;;230.70;1894.40;;;;;;4885037;29;20049;-69
2021/03/14 03:38:41;;;;;;;17.90;12.70;;;230.70;1894.40;;;;;;4885018;29;20030;-69
2021/03/14 03:41:07;;;;;;;16.45;11.90;;;230.80;1894.40;;;;;;4884759;29;20100;-68
2021/03/14 03:43:38;;;;;;;19.98;12.98;;;230.70;1868.80;;;;;;4884983;29;20017;-69
2021/03/14 03:46:08;;;;;;;16.52;12.38;;;230.80;1894.40;;;;;;4885127;29;20026;-69
2021/03/14 03:48:42;;;;;;;17.70;11.55;;;230.80;1868.80;;;;;;4884783;29;20013;-69
2021/03/14 03:51:09;;;;;;;20.55;12.63;;;230.80;1868.80;;;;;;4885129;29;20030;-69
2021/03/14 03:53:37;;;;;;;22.58;12.35;;;230.80;1868.80;;;;;;4885085;29;20077;-69
2021/03/14 03:56:03;;;;;;;19.92;12.60;;;230.80;1868.80;;;;;;4884949;29;20038;-70
2021/03/14 03:58:31;;;;;;;19.30;13.35;;;230.90;1894.40;;;;;;4884881;29;20140;-70
2021/03/14 04:00:57;;;;;;;21.73;14.07;;;230.90;1894.40;;;;;;4885032;29;20030;-70
2021/03/14 04:03:23;;;;;;;18.48;12.35;;;230.80;1868.80;;;;;;4884913;29;20042;-69
2021/03/14 04:05:54;;;;;;;18.67;14.05;;;230.90;1894.40;;;;;;4884841;29;20018;-70
2021/03/14 04:08:20;;;;;;;20.77;13.20;;;230.90;1868.80;;;;;;4884896;29;20033;-69
2021/03/14 04:10:47;;;;;;;23.17;13.43;;;230.90;1868.80;;;;;;4884875;29;20069;-70
2021/03/14 04:13:13;;;;;;;19.55;14.05;;;230.90;1868.80;;;;;;4884575;29;20029;-71
2021/03/14 04:15:40;;;;;;;20.27;14.88;;;230.90;1868.80;;;;;;4884810;29;20010;-72
2021/03/14 04:18:08;;;;;;;23.05;15.70;;;230.90;1868.80;;;;;;4884614;29;20037;-71
2021/03/14 04:20:37;;;;;;;24.77;14.82;;;230.90;1868.80;;;;;;4884663;29;20036;-70
2021/03/14 04:23:09;;;;;;;23.73;15.07;;;230.90;1868.80;;;;;;4884823;29;20037;-72
2021/03/14 04:25:36;;;;;;;22.75;15.50;;;230.90;1868.80;;;;;;4884567;29;20021;-68
2021/03/14 04:28:03;;;;;;;22.90;15.00;;;230.90;1868.80;;;;;;4884127;29;20083;-68
2021/03/14 04:30:29;;;;;;;24.52;15.13;;;231.00;1868.80;;;;;;4884704;29;20030;-69
2021/03/14 04:32:56;;;;;;;21.17;15.05;;;231.00;1868.80;;;;;;4884632;29;20025;-69
2021/03/14 04:35:23;;;;;;;20.15;14.80;;;231.00;1868.80;;;;;;4886296;29;20063;-70
2021/03/14 04:37:49;;;;;;;24.20;14.75;;;231.00;1868.80;;;;;;4888177;29;20021;-68
2021/03/14 04:40:16;;;;;;;22.98;15.52;;;231.00;1868.80;;;;;;4888006;29;20025;-69
2021/03/14 04:42:49;;;;;;;23.88;14.73;;;231.00;1868.80;;;;;;4887795;29;20066;-68
2021/03/14 04:45:15;;;;;;;22.27;14.50;;;231.00;1868.80;;;;;;4887985;29;20022;-69
2021/03/14 04:47:45;;;;;;;23.45;14.70;;;231.00;1868.80;;;;;;4888006;29;20025;-68
2021/03/14 04:50:14;;;;;;;22.33;14.15;;;231.00;1868.80;;;;;;4887995;29;20014;-68
2021/03/14 04:52:44;;;;;;;20.17;14.82;;;231.00;1868.80;;;;;;4887935;29;20022;-67
2021/03/14 04:55:12;;;;;;;25.50;14.25;;;231.00;1868.80;;;;;;4887813;29;20064;-68
2021/03/14 04:57:40;;;;;;;20.35;13.73;;;231.00;1868.80;;;;;;4887855;29;20082;-67
2021/03/14 05:00:10;;;;;;;18.95;12.77;;;231.00;1868.80;;;;;;4887552;29;20034;-67
2021/03/14 05:02:39;;;;;;;19.15;13.40;;;231.00;1868.80;;;;;;4887791;29;20020;-68
2021/03/14 05:05:06;;;;;;;20.27;13.32;;;231.00;1868.80;;;;;;4887704;29;20029;-69
2021/03/14 05:07:32;;;;;;;18.02;12.30;;;231.00;1868.80;;;;;;4887520;29;20010;-67
2021/03/14 05:09:59;;;;;;;22.52;12.23;;;231.10;1843.20;;;;;;4887491;29;20025;-68
2021/03/14 05:12:25;;;;;;;18.95;12.13;;;231.10;1843.20;;;;;;4887269;29;20045;-67
2021/03/14 05:14:52;;;;;;;19.23;11.63;;;231.10;1843.20;;;;;;4887490;29;20021;-68
2021/03/14 05:17:19;;;;;;;19.45;10.90;;;231.10;1843.20;;;;;;4887057;29;20034;-68
2021/03/14 05:19:46;;;;;;;23.17;12.50;;;231.10;1843.20;;;;;;4887404;29;20055;-68
2021/03/14 05:22:12;;;;;;;18.30;11.45;;;231.10;1843.20;;;;;;4887233;29;20013;-67
2021/03/14 05:24:39;;;;;;;19.92;11.55;;;231.10;1843.20;;;;;;4887319;29;20037;-67
2021/03/14 05:27:08;;;;;;;20.80;11.77;;;231.10;1843.20;;;;;;4887286;29;20037;-68
2021/03/14 05:29:35;;;;;;;20.00;11.05;;;231.10;1843.20;;;;;;4887329;29;20030;-67
2021/03/14 05:32:01;;;;;;;20.55;12.57;;;231.20;1843.20;;;;;;4887169;29;20014;-68
2021/03/14 05:34:27;;;;;;;18.48;11.90;;;231.20;1843.20;;;;;;4886792;29;20084;-68
2021/03/14 05:36:53;;;;;;;21.63;13.32;;;231.20;1843.20;;;;;;4887140;29;20028;-67
2021/03/14 05:39:19;;;;;;;21.20;13.07;;;231.20;1843.20;;;;;;4886777;29;20021;-67
2021/03/14 05:41:45;;;;;;;21.67;12.07;;;231.20;1843.20;;;;;;4886958;29;20014;-68
2021/03/14 05:44:12;;;;;;;21.35;12.70;;;231.20;1843.20;;;;;;4886986;29;20103;-68
2021/03/14 05:46:39;;;;;;;20.85;12.45;;;231.30;1843.20;;;;;;4886845;29;20037;-70
2021/03/14 05:49:05;;;;;;;17.83;11.95;;;231.30;1817.60;;;;;;4886887;29;20026;-67
2021/03/14 05:51:34;;;;;;;20.58;12.98;;;231.30;1817.60;;;;;;4886922;29;20010;-67
2021/03/14 05:54:01;;;;;;;24.35;14.35;;;231.30;1843.20;;;;;;4886781;29;20018;-67
2021/03/14 05:56:28;;;;;;;21.75;13.50;;;231.30;1817.60;;;;;;4886800;29;20030;-69
2021/03/14 05:58:55;;;;;;;20.20;12.15;;;231.30;1843.20;;;;;;4886635;29;20025;-70
2021/03/14 06:01:28;;;;;;;18.58;11.75;;;256.00;1817.60;;;;;;4886745;29;20060;-70
2021/03/14 06:03:55;;;;;;;21.92;10.65;;;256.00;1817.60;;;;;;4886548;29;20022;-67
2021/03/14 06:06:21;;;;;;;17.23;10.77;;;256.00;1843.20;;;;;;4886624;29;20018;-68
2021/03/14 06:08:47;;;;;;;22.40;10.57;;;256.00;1817.60;;;;;;4886490;29;20018;-68
2021/03/14 06:11:13;;;;;;;16.88;9.85;;;256.10;1843.20;;;;;;4886543;29;20012;-70
2021/03/14 06:13:40;;;;;;;18.40;11.07;;;256.10;1817.60;;;;;;4886254;29;20077;-70
2021/03/14 06:16:07;;;;;;;15.70;9.98;;;256.10;1843.20;;;;;;4886410;29;20014;-70
2021/03/14 06:18:34;;;;;;;24.15;10.55;;;256.20;1817.60;;;;;;4886082;29;20041;-70
2021/03/14 06:21:02;;;;;;;27.20;11.73;;;256.20;1817.60;;;;;;4886236;29;20028;-69
2021/03/14 06:23:28;;;;;;;27.83;12.98;;;256.20;1817.60;;;;;;4886238;29;20032;-68
2021/03/14 06:25:57;;;;;;;26.38;14.30;;;256.30;1817.60;;;;;;4886312;29;20025;-68
2021/03/14 06:28:36;;;;;;;24.27;14.02;;;256.30;1817.60;;;;;;4886157;29;20054;-67
2021/03/14 06:31:18;;;;;;;24.20;13.48;;;256.40;1817.60;;;;;;4886170;29;20043;-69
2021/03/14 06:33:44;;;;;;;19.40;13.02;;;256.50;1817.60;;;;;;4886133;29;20038;-68
2021/03/14 06:36:15;;;;;;;30.00;15.70;;;256.50;1817.60;;;;;;4885902;29;20106;-69
2021/03/14 06:38:41;;;;;;;29.02;14.30;;;256.50;1817.60;;;;;;4885968;29;20029;-70
2021/03/14 06:41:06;;;;;;;44.70;19.05;;;256.60;1817.60;;;;;;4886049;29;20029;-68
2021/03/14 06:43:41;;;;;;;57.45;22.80;;;256.70;1792.00;;;;;;4885953;29;20013;-69
2021/03/14 06:46:28;;;;;;;52.42;22.83;;;256.70;1817.60;;;;;;4885932;29;20047;-69
2021/03/14 06:49:13;;;;;;;62.70;27.42;;;256.80;1792.00;;;;;;4885921;29;20054;-69
2021/03/14 06:51:44;;;;;;;52.97;24.10;;;256.80;1792.00;;;;;;4885860;29;20014;-69
2021/03/14 06:54:17;;;;;;;37.13;16.65;;;256.90;1792.00;;;;;;4885841;29;20025;-69
2021/03/14 06:57:05;;;;;;;27.75;14.13;;;256.90;1792.00;;;;;;4888510;29;20017;-66
2021/03/14 06:59:38;;;;;;;18.75;10.77;;;281.60;1817.60;;;;;;4903590;29;20029;-69
2021/03/14 07:02:49;;;;;;;29.00;14.57;;;281.60;1817.60;;;;;;5132407;23;20024;-68
2021/03/14 07:05:23;;;;;;;20.73;14.07;;;281.70;1843.20;;;;;;4871779;29;20164;-67
2021/03/14 07:07:49;;;;;;;35.22;18.20;;;281.70;1868.80;;;;;;4880862;29;20089;-69
2021/03/14 07:10:19;;;;;;;18.80;8.15;;;281.70;1894.40;;;;;;4880621;29;20037;-66
2021/03/14 07:12:46;;;;;;;11.75;4.60;;;281.70;1868.80;;;;;;4880431;29;20108;-68
2021/03/14 07:15:15;;;;;;;7.20;3.70;;;281.80;1843.20;;;;;;4880266;29;20033;-65
2021/03/14 07:17:43;;;;;;;15.68;4.68;;;281.90;1843.20;;;;;;4880493;29;20124;-67
2021/03/14 07:20:15;;;;;;;21.75;9.05;;;282.00;1817.60;;;;;;4880388;29;20383;-64
2021/03/14 07:22:41;;;;;;;44.20;15.63;;;282.10;1843.20;;;;;;4884377;29;20028;-67
2021/03/14 07:25:20;;;;;;;52.85;22.35;;;282.20;1843.20;;;;;;4886637;29;20057;-68
2021/03/14 07:27:48;;;;;;;47.15;23.55;;;282.30;1817.60;;;;;;4888092;29;20017;-67
2021/03/14 07:30:15;;;;;;;46.75;20.20;;;282.40;1843.20;;;;;;4882859;29;20071;-66
2021/03/14 07:32:41;;;;;;;42.08;16.95;;;307.20;1868.80;;;;;;4879860;29;20044;-67
2021/03/14 07:35:08;;;;;;;32.33;12.85;;;307.40;1868.80;;;;;;4878752;29;20068;-65
2021/03/14 07:37:33;;;;;;;13.60;5.50;;;307.60;1894.40;;;;;;4880264;29;20089;-68
2021/03/14 07:39:59;;;;;;;9.25;4.20;;;307.80;1894.40;;;;;;4880021;29;20471;-68
2021/03/14 07:42:25;;;;;;;8.80;4.70;;;308.00;1894.40;;;;;;4880302;29;20068;-67
2021/03/14 07:44:51;;;;;;;11.18;5.82;;;332.90;1894.40;;;;;;4879993;29;20037;-68
2021/03/14 07:47:20;;;;;;;13.38;6.65;;;333.30;1894.40;;;;;;4879995;29;20112;-67
2021/03/14 07:49:53;;;;;;;11.88;5.82;;;333.50;1843.20;;;;;;4880286;29;20040;-68
2021/03/14 07:52:28;;;;;;;7.72;4.50;;;333.60;1817.60;;;;;;4896157;29;20084;-70
2021/03/14 07:55:01;;;;;;;8.80;4.53;;;358.40;1766.40;;;;;;4898670;29;20048;-68
2021/03/14 07:57:28;;;;;;;7.85;5.25;;;358.60;1766.40;;;;;;4888148;29;20036;-68
2021/03/14 07:59:54;;;;;;;11.93;5.72;;;358.80;1766.40;;;;;;4888896;29;20081;-67
2021/03/14 08:02:23;;;;;;;9.40;5.57;;;359.10;1740.80;;;;;;4886982;29;20028;-69
2021/03/14 08:05:00;;;;;;;8.32;4.85;;;359.30;1689.60;;;;;;4887651;29;20048;-67
2021/03/14 08:07:34;;;;;;;12.00;5.53;;;384.10;1664.00;;;;;;4887797;29;20021;-69
2021/03/14 08:10:05;;;;;;;13.48;6.70;;;384.40;1638.40;;;;;;4888349;29;20017;-69
2021/03/14 08:12:39;;;;;;;10.15;6.38;;;384.60;1612.80;;;;;;4891164;29;20161;-69
2021/03/14 08:15:28;;;;;;;17.30;8.18;;;409.60;1638.40;;;;;;4891123;29;20060;-69
2021/03/14 08:17:58;;;;;;;14.15;9.35;;;409.90;1612.80;;;;;;4891384;29;20066;-68
2021/03/14 08:20:45;;;;;;;15.23;8.52;;;410.10;1587.20;;;;;;4891171;29;20044;-68
2021/03/14 08:23:15;;;;;;;12.75;7.43;;;435.20;1561.60;;;;;;4890532;29;20021;-69
2021/03/14 08:25:44;;;;;;;13.20;8.00;;;435.40;1510.40;;;;;;4890543;29;20475;-69
2021/03/14 08:28:28;;;;;;;12.00;8.52;;;435.90;1459.20;;;;;;4891161;29;20029;-69
2021/03/14 08:30:56;;;;;;;14.10;9.07;;;436.00;1408.00;;;;;;4891297;29;20021;-68
2021/03/14 08:33:26;;;;;;;17.48;10.98;;;436.10;1433.60;;;;;;4887754;29;20033;-69
2021/03/14 08:35:55;;;;;;;28.98;14.27;;;460.80;1433.60;;;;;;4895575;29;20032;-68
2021/03/14 08:38:50;;;;;;;17.55;9.10;;;436.10;1382.40;;;;;;4890746;29;20035;-69
2021/03/14 08:41:49;;;;;;;31.42;15.00;;;436.00;1382.40;;;;;;4890843;29;20043;-68
2021/03/14 08:44:35;;;;;;;28.60;16.25;;;435.90;1382.40;;;;;;4834817;29;20114;-69
2021/03/14 08:47:04;;;;;;;22.13;14.68;;;435.70;1433.60;;;;;;4833444;29;20057;-68
2021/03/14 08:49:30;;;;;;;21.73;13.85;;;435.60;1484.80;;;;;;4832488;29;20076;-66
2021/03/14 08:51:56;;;;;;;19.15;13.30;;;435.40;1510.40;;;;;;4833721;29;20428;-67
2021/03/14 08:54:27;;;;;;;22.20;13.43;;;435.20;1510.40;;;;;;4833556;29;20139;-69
2021/03/14 08:56:54;;;;;;;25.63;15.48;;;410.40;1536.00;;;;;;4817400;29;20037;-69
2021/03/14 08:59:20;;;;;;;25.33;15.25;;;410.40;1561.60;;;;;;4832937;29;20062;-69
2021/03/14 09:01:54;;;;;;;22.95;14.13;;;410.20;1561.60;;;;;;4833956;29;20094;-67
2021/03/14 09:04:28;;;;;;;31.25;18.98;;;410.20;1561.60;;;;;;4831332;29;20050;-68
2021/03/14 09:07:01;;;;;;;33.22;17.88;;;410.10;1561.60;;;;;;4831733;29;20045;-69
2021/03/14 09:09:27;;;;;;;28.75;16.67;;;410.00;1587.20;;;;;;4833842;29;20102;-68
2021/03/14 09:11:55;;;;;;;25.30;14.32;;;409.80;1612.80;;;;;;4831993;29;20426;-68
2021/03/14 09:14:35;;;;;;;44.38;23.00;;;409.80;1612.80;;;;;;4832993;29;20146;-67
2021/03/14 09:17:08;;;;;;;48.08;22.80;;;409.80;1612.80;;;;;;4832961;29;20030;-68
2021/03/14 09:19:38;;;;;;;51.60;22.80;;;409.80;1587.20;;;;;;4852557;29;20053;-68
2021/03/14 09:22:12;;;;;;;26.80;14.45;;;409.90;1561.60;;;;;;4889590;29;20025;-66
2021/03/14 09:24:42;;;;;;;22.95;11.18;;;409.90;1536.00;;;;;;4890506;29;20497;-66
2021/03/14 09:27:16;;;;;;;22.80;12.25;;;410.00;1561.60;;;;;;4900643;29;20063;-69
2021/03/14 09:30:07;;;;;;;25.70;12.30;;;410.10;1561.60;;;;;;4901045;29;20035;-68
2021/03/14 09:32:50;;;;;;;21.35;13.85;;;410.20;1561.60;;;;;;4901045;29;20087;-76
2021/03/14 09:35:30;;;;;;;26.83;13.75;;;410.40;1561.60;;;;;;4900935;29;20479;-72
2021/03/14 09:38:03;;;;;;;18.75;10.20;;;410.40;1536.00;;;;;;4900986;29;20040;-68
2021/03/14 09:40:32;;;;;;;17.13;8.93;;;435.20;1536.00;;;;;;4886881;29;20064;-69
2021/03/14 09:43:09;;;;;;;28.55;15.07;;;435.20;1536.00;;;;;;4882219;29;20036;-68
2021/03/14 09:45:37;;;;;;;29.20;16.10;;;435.20;1510.40;;;;;;4882063;29;20043;-70
2021/03/14 09:48:03;;;;;;;25.90;13.90;;;435.30;1484.80;;;;;;4881984;29;20081;-69
2021/03/14 09:50:30;;;;;;;34.75;13.52;;;435.20;1484.80;;;;;;4882058;29;20029;-69
2021/03/14 09:53:00;;;;;;;26.15;10.20;;;435.20;1459.20;;;;;;4881906;29;20036;-69
2021/03/14 09:55:40;;;;;;;25.55;10.55;;;410.50;1433.60;;;;;;4882138;29;20074;-69
2021/03/14 09:58:12;;;;;;;24.60;12.02;;;410.50;1459.20;;;;;;4881863;29;20029;-67
2021/03/14 10:00:39;;;;;;;24.33;12.18;;;410.50;1459.20;;;;;;4881613;29;20037;-69
2021/03/14 10:03:09;;;;;;;16.77;10.63;;;410.50;1459.20;;;;;;4881791;29;20031;-69
2021/03/14 10:05:36;;;;;;;16.90;9.70;;;410.50;1459.20;;;;;;4881571;29;20063;-69
2021/03/14 10:08:02;;;;;;;16.85;7.30;;;410.50;1459.20;;;;;;4881996;29;20380;-68
2021/03/14 10:10:28;;;;;;;37.58;10.60;;;435.20;1433.60;;;;;;4881738;29;20037;-69
2021/03/14 10:12:54;;;;;;;32.25;13.30;;;435.20;1433.60;;;;;;4881734;29;20029;-69
2021/03/14 10:15:20;;;;;;;40.90;18.98;;;435.20;1433.60;;;;;;4864780;29;20468;-68
2021/03/14 10:17:46;;;;;;;35.90;18.20;;;435.20;1408.00;;;;;;4881707;29;20089;-68
2021/03/14 10:20:13;;;;;;;27.27;14.07;;;435.20;1408.00;;;;;;4881270;29;20041;-69
2021/03/14 10:22:39;;;;;;;25.25;12.93;;;435.20;1408.00;;;;;;4881582;29;20025;-68
2021/03/14 10:25:21;;;;;;;19.38;10.63;;;435.20;1408.00;;;;;;4881560;29;20093;-69
2021/03/14 10:27:48;;;;;;;21.00;10.70;;;435.30;1408.00;;;;;;4881328;29;20040;-68
2021/03/14 10:30:18;;;;;;;28.15;11.68;;;435.30;1408.00;;;;;;4881358;29;20069;-68
2021/03/14 10:32:46;;;;;;;26.00;12.80;;;435.40;1408.00;;;;;;4888356;29;20036;-68
2021/03/14 10:35:12;;;;;;;24.38;10.45;;;435.40;1408.00;;;;;;4899910;29;20036;-69
2021/03/14 10:37:39;;;;;;;21.92;10.45;;;435.50;1408.00;;;;;;4900014;29;20032;-68
2021/03/14 10:40:07;;;;;;;33.60;17.42;;;435.60;1408.00;;;;;;4899659;29;20061;-68
2021/03/14 10:42:36;;;;;;;38.67;17.95;;;435.70;1408.00;;;;;;4899724;29;20020;-69
2021/03/14 10:45:07;;;;;;;44.30;15.73;;;435.70;1382.40;;;;;;4899463;29;20546;-72
2021/03/14 10:47:32;;;;;;;28.88;16.88;;;435.80;1382.40;;;;;;4897827;29;20478;-66
2021/03/14 10:50:10;;;;;;;46.60;16.75;;;435.80;1382.40;;;;;;4897630;29;20035;-67
2021/03/14 10:52:36;;;;;;;46.70;19.95;;;435.90;1382.40;;;;;;4898698;29;20053;-68
2021/03/14 10:55:27;;;;;;;43.55;23.33;;;435.90;1382.40;;;;;;4898533;29;20024;-68
2021/03/14 10:58:34;;;;;;;28.75;16.30;;;435.90;1408.00;;;;;;4898729;29;20100;-68
2021/03/14 11:01:00;;;;;;;24.48;16.80;;;435.90;1382.40;;;;;;4840562;29;20519;-67
2021/03/14 11:03:37;;;;;;;53.13;28.45;;;435.90;1382.40;;;;;;4840377;29;20066;-68
2021/03/14 11:06:17;;;;;;;46.13;23.85;;;435.90;1382.40;;;;;;4841160;29;20098;-70
2021/03/14 11:08:47;;;;;;;73.25;39.30;;;435.90;1382.40;;;;;;4841027;29;20388;-70
2021/03/14 11:11:13;;;;;;;47.47;26.58;;;435.90;1408.00;;;;;;4840182;29;20034;-68
2021/03/14 11:13:39;;;;;;;33.72;15.32;;;435.90;1408.00;;;;;;4828692;29;20393;-68
2021/03/14 11:16:06;;;;;;;29.75;15.13;;;435.90;1408.00;;;;;;4830034;29;20098;-70
2021/03/14 11:18:32;;;;;;;22.33;12.52;;;435.90;1408.00;;;;;;4830108;29;20043;-69
2021/03/14 11:20:58;;;;;;;21.63;12.45;;;436.00;1408.00;;;;;;4837817;29;20042;-69
2021/03/14 11:23:24;;;;;;;24.88;12.90;;;436.00;1382.40;;;;;;4830289;29;20404;-70
2021/03/14 11:25:51;;;;;;;15.70;10.00;;;436.00;1382.40;;;;;;4828833;29;20476;-69
2021/03/14 11:28:17;;;;;;;15.82;8.98;;;436.00;1382.40;;;;;;4830444;29;20034;-68
2021/03/14 11:30:43;;;;;;;15.32;7.25;;;436.00;1356.80;;;;;;4824095;29;20409;-67
2021/03/14 11:33:08;;;;;;;16.23;6.97;;;436.00;1356.80;;;;;;4823128;29;20112;-70
2021/03/14 11:35:35;;;;;;;14.07;7.70;;;436.00;1356.80;;;;;;4868909;29;20108;-71
2021/03/14 11:38:00;;;;;;;15.10;7.35;;;436.00;1382.40;;;;;;4880298;29;20029;-71
2021/03/14 11:40:26;;;;;;;12.82;7.20;;;436.10;1382.40;;;;;;4880240;29;20060;-71
2021/03/14 11:42:52;;;;;;;19.45;9.23;;;460.80;1408.00;;;;;;4880365;29;20052;-71
2021/03/14 11:45:18;;;;;;;23.60;13.07;;;460.80;1408.00;;;;;;4879792;29;20467;-71
2021/03/14 11:47:44;;;;;;;23.48;11.93;;;460.80;1408.00;;;;;;4880213;29;20033;-70
2021/03/14 11:50:11;;;;;;;26.58;13.80;;;436.10;1382.40;;;;;;4880252;29;20029;-71
2021/03/14 11:52:36;;;;;;;21.13;11.45;;;436.00;1382.40;;;;;;4880593;29;20194;-71
2021/03/14 11:55:03;;;;;;;22.45;14.07;;;435.90;1382.40;;;;;;4880015;29;20488;-72
2021/03/14 11:57:29;;;;;;;23.45;13.00;;;435.90;1433.60;;;;;;4880292;29;20052;-72
2021/03/14 11:59:57;;;;;;;16.00;9.95;;;435.70;1459.20;;;;;;4879995;29;20068;-70
2021/03/14 12:02:23;;;;;;;14.65;9.15;;;435.70;1510.40;;;;;;4880076;29;20029;-72
2021/03/14 12:04:49;;;;;;;11.60;8.45;;;435.60;1510.40;;;;;;4879728;29;20056;-70
2021/03/14 12:07:15;;;;;;;14.60;8.60;;;435.40;1536.00;;;;;;4879947;29;20021;-71
2021/03/14 12:09:41;;;;;;;13.07;7.63;;;435.40;1561.60;;;;;;4879596;29;20033;-71